sensor_id;sensor_type;location;lat;lon;timestamp;P1;P2;P0
31330;PMS5003;34067;39.548;-76.088;2023-12-07T00:01:26;10;9;
31330;PMS5003;34067;39.548;-76.088;2023-12-07T00:03:54;10;8;
31330;PMS5003;34067;39.548;-76.088;2023-12-07T00:06:21;8;6;
31330;PMS5003;34067;39.548;-76.088;2023-12-07T00:08:49;12;10;
31330;PMS5003;34067;39.548;-76.088;2023-12-07T00:11:16;9;8;
31330;PMS5003;34067;39.548;-76.088;2023-12-07T00:13:45;9;9;
31330;PMS5003;34067;39.548;-76.088;2023-12-07T00:16:12;6;6;
31330;PMS5003;34067;39.548;-76.088;2023-12-07T00:18:40;8;8;
31330;PMS5003;34067;39.548;-76.088;2023-12-07T00:21:09;11;9;
31330;PMS5003;34067;39.548;-76.088;2023-12-07T00:23:36;10;9;
31330;PMS5003;34067;39.548;-76.088;2023-12-07T00:26:04;8;6;
31330;PMS5003;34067;39.548;-76.088;2023-12-07T00:28:33;8;8;
31330;PMS5003;34067;39.548;-76.088;2023-12-07T00:31:00;10;8;
31330;PMS5003;34067;39.548;-76.088;2023-12-07T00:33:28;11;11;
31330;PMS5003;34067;39.548;-76.088;2023-12-07T00:35:55;10;9;
31330;PMS5003;34067;39.548;-76.088;2023-12-07T00:38:23;13;11;
31330;PMS5003;34067;39.548;-76.088;2023-12-07T00:40:50;9;8;
31330;PMS5003;34067;39.548;-76.088;2023-12-07T00:43:18;10;10;
31330;PMS5003;34067;39.548;-76.088;2023-12-07T00:45:46;8;6;
31330;PMS5003;34067;39.548;-76.088;2023-12-07T00:48:13;10;10;
31330;PMS5003;34067;39.548;-76.088;2023-12-07T00:50:41;12;11;
31330;PMS5003;34067;39.548;-76.088;2023-12-07T00:53:09;12;9;
31330;PMS5003;34067;39.548;-76.088;2023-12-07T00:55:37;11;10;
31330;PMS5003;34067;39.548;-76.088;2023-12-07T00:58:05;12;11;
31330;PMS5003;34067;39.548;-76.088;2023-12-07T01:00:33;10;9;
31330;PMS5003;34067;39.548;-76.088;2023-12-07T01:03:01;8;8;
31330;PMS5003;34067;39.548;-76.088;2023-12-07T01:05:29;9;8;
31330;PMS5003;34067;39.548;-76.088;2023-12-07T01:07:56;10;9;
31330;PMS5003;34067;39.548;-76.088;2023-12-07T01:10:24;11;10;
31330;PMS5003;34067;39.548;-76.088;2023-12-07T01:12:51;8;8;
31330;PMS5003;34067;39.548;-76.088;2023-12-07T01:15:19;11;10;
31330;PMS5003;34067;39.548;-76.088;2023-12-07T01:17:46;10;10;
31330;PMS5003;34067;39.548;-76.088;2023-12-07T01:20:14;12;12;
31330;PMS5003;34067;39.548;-76.088;2023-12-07T01:22:43;12;10;
31330;PMS5003;34067;39.548;-76.088;2023-12-07T01:25:11;9;8;
31330;PMS5003;34067;39.548;-76.088;2023-12-07T01:27:40;10;10;
31330;PMS5003;34067;39.548;-76.088;2023-12-07T01:30:08;11;11;
31330;PMS5003;34067;39.548;-76.088;2023-12-07T01:32:37;9;8;
31330;PMS5003;34067;39.548;-76.088;2023-12-07T01:35:06;10;9;
31330;PMS5003;34067;39.548;-76.088;2023-12-07T01:37:35;7;5;
31330;PMS5003;34067;39.548;-76.088;2023-12-07T01:40:03;8;8;
31330;PMS5003;34067;39.548;-76.088;2023-12-07T01:42:32;4;4;
31330;PMS5003;34067;39.548;-76.088;2023-12-07T01:45:01;4;4;
31330;PMS5003;34067;39.548;-76.088;2023-12-07T01:47:29;5;4;
31330;PMS5003;34067;39.548;-76.088;2023-12-07T01:49:58;5;5;
31330;PMS5003;34067;39.548;-76.088;2023-12-07T01:52:29;5;4;
31330;PMS5003;34067;39.548;-76.088;2023-12-07T01:54:57;8;8;
31330;PMS5003;34067;39.548;-76.088;2023-12-07T01:57:25;7;7;
31330;PMS5003;34067;39.548;-76.088;2023-12-07T01:59:54;5;5;
31330;PMS5003;34067;39.548;-76.088;2023-12-07T02:02:22;7;5;
31330;PMS5003;34067;39.548;-76.088;2023-12-07T02:04:50;5;5;
31330;PMS5003;34067;39.548;-76.088;2023-12-07T02:07:19;5;4;
31330;PMS5003;34067;39.548;-76.088;2023-12-07T02:09:48;5;5;
31330;PMS5003;34067;39.548;-76.088;2023-12-07T02:12:16;5;4;
31330;PMS5003;34067;39.548;-76.088;2023-12-07T02:14:45;7;7;
31330;PMS5003;34067;39.548;-76.088;2023-12-07T02:17:15;5;5;
31330;PMS5003;34067;39.548;-76.088;2023-12-07T02:19:51;7;5;
31330;PMS5003;34067;39.548;-76.088;2023-12-07T02:22:25;5;5;
31330;PMS5003;34067;39.548;-76.088;2023-12-07T02:25:03;4;4;
31330;PMS5003;34067;39.548;-76.088;2023-12-07T02:27:35;4;4;
31330;PMS5003;34067;39.548;-76.088;2023-12-07T02:30:05;4;4;
31330;PMS5003;34067;39.548;-76.088;2023-12-07T02:32:34;5;4;
31330;PMS5003;34067;39.548;-76.088;2023-12-07T02:35:04;4;3;
31330;PMS5003;34067;39.548;-76.088;2023-12-07T02:37:35;3;3;
31330;PMS5003;34067;39.548;-76.088;2023-12-07T02:40:07;5;3;
31330;PMS5003;34067;39.548;-76.088;2023-12-07T02:42:37;5;4;
31330;PMS5003;34067;39.548;-76.088;2023-12-07T02:45:07;3;3;
31330;PMS5003;34067;39.548;-76.088;2023-12-07T02:47:36;4;4;
31330;PMS5003;34067;39.548;-76.088;2023-12-07T02:50:05;4;4;
31330;PMS5003;34067;39.548;-76.088;2023-12-07T02:52:34;4;4;
31330;PMS5003;34067;39.548;-76.088;2023-12-07T02:55:03;4;4;
31330;PMS5003;34067;39.548;-76.088;2023-12-07T02:57:32;3;3;
31330;PMS5003;34067;39.548;-76.088;2023-12-07T03:00:01;3;3;
31330;PMS5003;34067;39.548;-76.088;2023-12-07T03:02:30;3;3;
31330;PMS5003;34067;39.548;-76.088;2023-12-07T03:04:59;4;4;
31330;PMS5003;34067;39.548;-76.088;2023-12-07T03:07:27;4;4;
31330;PMS5003;34067;39.548;-76.088;2023-12-07T03:09:55;3;3;
31330;PMS5003;34067;39.548;-76.088;2023-12-07T03:12:24;3;3;
31330;PMS5003;34067;39.548;-76.088;2023-12-07T03:14:53;3;3;
31330;PMS5003;34067;39.548;-76.088;2023-12-07T03:17:21;3;3;
31330;PMS5003;34067;39.548;-76.088;2023-12-07T03:19:49;2;2;
31330;PMS5003;34067;39.548;-76.088;2023-12-07T03:22:17;4;4;
31330;PMS5003;34067;39.548;-76.088;2023-12-07T03:24:46;5;4;
31330;PMS5003;34067;39.548;-76.088;2023-12-07T03:27:18;4;3;
31330;PMS5003;34067;39.548;-76.088;2023-12-07T03:29:46;4;4;
31330;PMS5003;34067;39.548;-76.088;2023-12-07T03:32:13;5;4;
31330;PMS5003;34067;39.548;-76.088;2023-12-07T03:34:42;3;3;
31330;PMS5003;34067;39.548;-76.088;2023-12-07T03:37:10;4;4;
31330;PMS5003;34067;39.548;-76.088;2023-12-07T03:39:39;4;4;
31330;PMS5003;34067;39.548;-76.088;2023-12-07T03:42:07;4;4;
31330;PMS5003;34067;39.548;-76.088;2023-12-07T03:44:35;7;5;
31330;PMS5003;34067;39.548;-76.088;2023-12-07T03:47:04;5;5;
31330;PMS5003;34067;39.548;-76.088;2023-12-07T03:49:33;4;4;
31330;PMS5003;34067;39.548;-76.088;2023-12-07T03:52:01;4;4;
31330;PMS5003;34067;39.548;-76.088;2023-12-07T03:54:30;5;4;
31330;PMS5003;34067;39.548;-76.088;2023-12-07T03:57:00;7;5;
31330;PMS5003;34067;39.548;-76.088;2023-12-07T03:59:28;3;3;
31330;PMS5003;34067;39.548;-76.088;2023-12-07T04:01:58;5;5;
31330;PMS5003;34067;39.548;-76.088;2023-12-07T04:04:26;5;5;
31330;PMS5003;34067;39.548;-76.088;2023-12-07T04:06:55;5;5;
31330;PMS5003;34067;39.548;-76.088;2023-12-07T04:09:23;4;4;
31330;PMS5003;34067;39.548;-76.088;2023-12-07T04:11:52;4;3;
31330;PMS5003;34067;39.548;-76.088;2023-12-07T04:14:20;4;4;
31330;PMS5003;34067;39.548;-76.088;2023-12-07T04:16:48;7;5;
31330;PMS5003;34067;39.548;-76.088;2023-12-07T04:19:17;5;5;
31330;PMS5003;34067;39.548;-76.088;2023-12-07T04:21:45;4;4;
31330;PMS5003;34067;39.548;-76.088;2023-12-07T04:24:12;5;5;
31330;PMS5003;34067;39.548;-76.088;2023-12-07T04:26:40;4;3;
31330;PMS5003;34067;39.548;-76.088;2023-12-07T04:29:08;7;4;
31330;PMS5003;34067;39.548;-76.088;2023-12-07T04:31:36;5;5;
31330;PMS5003;34067;39.548;-76.088;2023-12-07T04:34:04;4;4;
31330;PMS5003;34067;39.548;-76.088;2023-12-07T04:36:33;5;4;
31330;PMS5003;34067;39.548;-76.088;2023-12-07T04:39:00;4;4;
31330;PMS5003;34067;39.548;-76.088;2023-12-07T04:41:28;4;4;
31330;PMS5003;34067;39.548;-76.088;2023-12-07T04:43:55;4;4;
31330;PMS5003;34067;39.548;-76.088;2023-12-07T04:46:23;4;4;
31330;PMS5003;34067;39.548;-76.088;2023-12-07T04:48:50;6;6;
31330;PMS5003;34067;39.548;-76.088;2023-12-07T04:51:18;6;6;
31330;PMS5003;34067;39.548;-76.088;2023-12-07T04:53:46;9;6;
31330;PMS5003;34067;39.548;-76.088;2023-12-07T04:56:14;6;6;
31330;PMS5003;34067;39.548;-76.088;2023-12-07T04:58:42;4;4;
31330;PMS5003;34067;39.548;-76.088;2023-12-07T05:01:10;5;4;
31330;PMS5003;34067;39.548;-76.088;2023-12-07T05:03:37;6;4;
31330;PMS5003;34067;39.548;-76.088;2023-12-07T05:06:05;7;6;
31330;PMS5003;34067;39.548;-76.088;2023-12-07T05:08:33;3;3;
31330;PMS5003;34067;39.548;-76.088;2023-12-07T05:11:01;7;6;
31330;PMS5003;34067;39.548;-76.088;2023-12-07T05:13:29;8;7;
31330;PMS5003;34067;39.548;-76.088;2023-12-07T05:15:57;4;4;
31330;PMS5003;34067;39.548;-76.088;2023-12-07T05:18:25;6;6;
31330;PMS5003;34067;39.548;-76.088;2023-12-07T05:20:52;6;4;
31330;PMS5003;34067;39.548;-76.088;2023-12-07T05:23:20;3;3;
31330;PMS5003;34067;39.548;-76.088;2023-12-07T05:25:47;4;4;
31330;PMS5003;34067;39.548;-76.088;2023-12-07T05:28:15;4;4;
31330;PMS5003;34067;39.548;-76.088;2023-12-07T05:30:42;4;3;
31330;PMS5003;34067;39.548;-76.088;2023-12-07T05:33:11;4;3;
31330;PMS5003;34067;39.548;-76.088;2023-12-07T05:35:39;4;4;
31330;PMS5003;34067;39.548;-76.088;2023-12-07T05:38:07;6;6;
31330;PMS5003;34067;39.548;-76.088;2023-12-07T05:40:34;8;6;
31330;PMS5003;34067;39.548;-76.088;2023-12-07T05:43:02;6;4;
31330;PMS5003;34067;39.548;-76.088;2023-12-07T05:45:29;3;3;
31330;PMS5003;34067;39.548;-76.088;2023-12-07T05:47:57;6;3;
31330;PMS5003;34067;39.548;-76.088;2023-12-07T05:50:25;6;4;
31330;PMS5003;34067;39.548;-76.088;2023-12-07T05:52:53;3;3;
31330;PMS5003;34067;39.548;-76.088;2023-12-07T05:55:20;4;3;
31330;PMS5003;34067;39.548;-76.088;2023-12-07T05:57:48;3;2;
31330;PMS5003;34067;39.548;-76.088;2023-12-07T06:03:09;3;3;
31330;PMS5003;34067;39.548;-76.088;2023-12-07T06:05:37;6;4;
31330;PMS5003;34067;39.548;-76.088;2023-12-07T06:08:05;3;3;
31330;PMS5003;34067;39.548;-76.088;2023-12-07T06:10:33;3;3;
31330;PMS5003;34067;39.548;-76.088;2023-12-07T06:13:01;6;4;
31330;PMS5003;34067;39.548;-76.088;2023-12-07T06:15:28;3;3;
31330;PMS5003;34067;39.548;-76.088;2023-12-07T06:17:58;4;4;
31330;PMS5003;34067;39.548;-76.088;2023-12-07T06:20:26;6;6;
31330;PMS5003;34067;39.548;-76.088;2023-12-07T06:22:54;7;6;
31330;PMS5003;34067;39.548;-76.088;2023-12-07T06:25:22;4;4;
31330;PMS5003;34067;39.548;-76.088;2023-12-07T06:27:50;3;3;
31330;PMS5003;34067;39.548;-76.088;2023-12-07T06:30:18;6;6;
31330;PMS5003;34067;39.548;-76.088;2023-12-07T06:32:46;4;4;
31330;PMS5003;34067;39.548;-76.088;2023-12-07T06:35:14;6;6;
31330;PMS5003;34067;39.548;-76.088;2023-12-07T06:37:42;6;4;
31330;PMS5003;34067;39.548;-76.088;2023-12-07T06:40:10;6;4;
31330;PMS5003;34067;39.548;-76.088;2023-12-07T06:42:38;4;3;
31330;PMS5003;34067;39.548;-76.088;2023-12-07T06:45:06;7;6;
31330;PMS5003;34067;39.548;-76.088;2023-12-07T06:47:34;4;4;
31330;PMS5003;34067;39.548;-76.088;2023-12-07T06:50:01;4;4;
31330;PMS5003;34067;39.548;-76.088;2023-12-07T06:52:30;7;6;
31330;PMS5003;34067;39.548;-76.088;2023-12-07T06:54:57;7;6;
31330;PMS5003;34067;39.548;-76.088;2023-12-07T06:57:25;7;7;
31330;PMS5003;34067;39.548;-76.088;2023-12-07T06:59:52;4;4;
31330;PMS5003;34067;39.548;-76.088;2023-12-07T07:02:20;4;3;
31330;PMS5003;34067;39.548;-76.088;2023-12-07T07:04:47;8;6;
31330;PMS5003;34067;39.548;-76.088;2023-12-07T07:07:15;6;6;
31330;PMS5003;34067;39.548;-76.088;2023-12-07T07:09:43;7;7;
31330;PMS5003;34067;39.548;-76.088;2023-12-07T07:12:10;4;4;
31330;PMS5003;34067;39.548;-76.088;2023-12-07T07:14:38;4;4;
31330;PMS5003;34067;39.548;-76.088;2023-12-07T07:17:06;4;4;
31330;PMS5003;34067;39.548;-76.088;2023-12-07T07:19:34;4;4;
31330;PMS5003;34067;39.548;-76.088;2023-12-07T07:22:02;5;4;
31330;PMS5003;34067;39.548;-76.088;2023-12-07T07:24:31;5;4;
31330;PMS5003;34067;39.548;-76.088;2023-12-07T07:26:59;5;4;
31330;PMS5003;34067;39.548;-76.088;2023-12-07T07:29:27;5;5;
31330;PMS5003;34067;39.548;-76.088;2023-12-07T07:31:55;7;6;
31330;PMS5003;34067;39.548;-76.088;2023-12-07T07:34:23;6;4;
31330;PMS5003;34067;39.548;-76.088;2023-12-07T07:36:51;7;5;
31330;PMS5003;34067;39.548;-76.088;2023-12-07T07:39:18;7;6;
31330;PMS5003;34067;39.548;-76.088;2023-12-07T07:41:46;8;7;
31330;PMS5003;34067;39.548;-76.088;2023-12-07T07:44:13;4;4;
31330;PMS5003;34067;39.548;-76.088;2023-12-07T07:46:41;9;8;
31330;PMS5003;34067;39.548;-76.088;2023-12-07T07:49:09;8;8;
31330;PMS5003;34067;39.548;-76.088;2023-12-07T07:51:37;9;9;
31330;PMS5003;34067;39.548;-76.088;2023-12-07T07:54:04;8;7;
31330;PMS5003;34067;39.548;-76.088;2023-12-07T07:56:32;7;6;
31330;PMS5003;34067;39.548;-76.088;2023-12-07T07:59:00;7;7;
31330;PMS5003;34067;39.548;-76.088;2023-12-07T08:01:27;9;6;
31330;PMS5003;34067;39.548;-76.088;2023-12-07T08:03:55;7;6;
31330;PMS5003;34067;39.548;-76.088;2023-12-07T08:06:22;4;4;
31330;PMS5003;34067;39.548;-76.088;2023-12-07T08:08:50;4;4;
31330;PMS5003;34067;39.548;-76.088;2023-12-07T08:11:17;8;7;
31330;PMS5003;34067;39.548;-76.088;2023-12-07T08:13:45;7;7;
31330;PMS5003;34067;39.548;-76.088;2023-12-07T08:16:12;4;4;
31330;PMS5003;34067;39.548;-76.088;2023-12-07T08:18:40;9;9;
31330;PMS5003;34067;39.548;-76.088;2023-12-07T08:21:08;6;6;
31330;PMS5003;34067;39.548;-76.088;2023-12-07T08:23:45;4;4;
31330;PMS5003;34067;39.548;-76.088;2023-12-07T08:26:13;7;4;
31330;PMS5003;34067;39.548;-76.088;2023-12-07T08:28:41;13;12;
31330;PMS5003;34067;39.548;-76.088;2023-12-07T08:31:09;8;8;
31330;PMS5003;34067;39.548;-76.088;2023-12-07T08:33:37;8;8;
31330;PMS5003;34067;39.548;-76.088;2023-12-07T08:36:05;8;7;
31330;PMS5003;34067;39.548;-76.088;2023-12-07T08:38:33;7;7;
31330;PMS5003;34067;39.548;-76.088;2023-12-07T08:41:00;10;8;
31330;PMS5003;34067;39.548;-76.088;2023-12-07T08:43:28;6;6;
31330;PMS5003;34067;39.548;-76.088;2023-12-07T08:45:56;8;8;
31330;PMS5003;34067;39.548;-76.088;2023-12-07T08:48:24;8;7;
31330;PMS5003;34067;39.548;-76.088;2023-12-07T08:50:52;7;7;
31330;PMS5003;34067;39.548;-76.088;2023-12-07T08:53:19;7;6;
31330;PMS5003;34067;39.548;-76.088;2023-12-07T08:55:48;6;6;
31330;PMS5003;34067;39.548;-76.088;2023-12-07T08:58:15;7;6;
31330;PMS5003;34067;39.548;-76.088;2023-12-07T09:00:43;6;6;
31330;PMS5003;34067;39.548;-76.088;2023-12-07T09:03:11;6;6;
31330;PMS5003;34067;39.548;-76.088;2023-12-07T09:05:38;6;6;
31330;PMS5003;34067;39.548;-76.088;2023-12-07T09:08:06;7;6;
31330;PMS5003;34067;39.548;-76.088;2023-12-07T09:10:34;8;6;
31330;PMS5003;34067;39.548;-76.088;2023-12-07T09:13:01;8;7;
31330;PMS5003;34067;39.548;-76.088;2023-12-07T09:15:29;6;4;
31330;PMS5003;34067;39.548;-76.088;2023-12-07T09:17:57;7;7;
31330;PMS5003;34067;39.548;-76.088;2023-12-07T09:20:25;8;7;
31330;PMS5003;34067;39.548;-76.088;2023-12-07T09:22:53;7;6;
31330;PMS5003;34067;39.548;-76.088;2023-12-07T09:25:20;6;4;
31330;PMS5003;34067;39.548;-76.088;2023-12-07T09:27:48;4;4;
31330;PMS5003;34067;39.548;-76.088;2023-12-07T09:30:16;10;9;
31330;PMS5003;34067;39.548;-76.088;2023-12-07T09:32:43;4;4;
31330;PMS5003;34067;39.548;-76.088;2023-12-07T09:35:11;6;6;
31330;PMS5003;34067;39.548;-76.088;2023-12-07T09:37:39;6;4;
31330;PMS5003;34067;39.548;-76.088;2023-12-07T09:40:07;9;8;
31330;PMS5003;34067;39.548;-76.088;2023-12-07T09:42:41;6;4;
31330;PMS5003;34067;39.548;-76.088;2023-12-07T09:45:09;8;8;
31330;PMS5003;34067;39.548;-76.088;2023-12-07T09:47:37;7;6;
31330;PMS5003;34067;39.548;-76.088;2023-12-07T09:50:07;8;6;
31330;PMS5003;34067;39.548;-76.088;2023-12-07T09:52:35;7;6;
31330;PMS5003;34067;39.548;-76.088;2023-12-07T09:55:05;6;6;
31330;PMS5003;34067;39.548;-76.088;2023-12-07T09:57:33;6;6;
31330;PMS5003;34067;39.548;-76.088;2023-12-07T10:00:01;8;8;
31330;PMS5003;34067;39.548;-76.088;2023-12-07T10:02:29;7;7;
31330;PMS5003;34067;39.548;-76.088;2023-12-07T10:05:04;7;7;
31330;PMS5003;34067;39.548;-76.088;2023-12-07T10:07:33;7;7;
31330;PMS5003;34067;39.548;-76.088;2023-12-07T10:10:03;9;7;
31330;PMS5003;34067;39.548;-76.088;2023-12-07T10:12:32;4;4;
31330;PMS5003;34067;39.548;-76.088;2023-12-07T10:15:03;6;6;
31330;PMS5003;34067;39.548;-76.088;2023-12-07T10:17:47;7;7;
31330;PMS5003;34067;39.548;-76.088;2023-12-07T10:20:16;8;7;
31330;PMS5003;34067;39.548;-76.088;2023-12-07T10:22:45;9;9;
31330;PMS5003;34067;39.548;-76.088;2023-12-07T10:25:14;7;7;
31330;PMS5003;34067;39.548;-76.088;2023-12-07T10:27:42;6;6;
31330;PMS5003;34067;39.548;-76.088;2023-12-07T10:30:11;7;6;
31330;PMS5003;34067;39.548;-76.088;2023-12-07T10:32:39;7;6;
31330;PMS5003;34067;39.548;-76.088;2023-12-07T10:35:08;7;7;
31330;PMS5003;34067;39.548;-76.088;2023-12-07T10:37:36;7;6;
31330;PMS5003;34067;39.548;-76.088;2023-12-07T10:40:04;7;6;
31330;PMS5003;34067;39.548;-76.088;2023-12-07T10:42:33;7;6;
31330;PMS5003;34067;39.548;-76.088;2023-12-07T10:45:03;6;6;
31330;PMS5003;34067;39.548;-76.088;2023-12-07T10:47:35;6;6;
31330;PMS5003;34067;39.548;-76.088;2023-12-07T10:50:05;8;8;
31330;PMS5003;34067;39.548;-76.088;2023-12-07T10:52:35;4;3;
31330;PMS5003;34067;39.548;-76.088;2023-12-07T10:55:05;6;6;
31330;PMS5003;34067;39.548;-76.088;2023-12-07T10:57:39;6;6;
31330;PMS5003;34067;39.548;-76.088;2023-12-07T11:00:08;9;7;
31330;PMS5003;34067;39.548;-76.088;2023-12-07T11:02:37;7;7;
31330;PMS5003;34067;39.548;-76.088;2023-12-07T11:05:06;6;6;
31330;PMS5003;34067;39.548;-76.088;2023-12-07T11:07:40;8;6;
31330;PMS5003;34067;39.548;-76.088;2023-12-07T11:10:19;9;7;
31330;PMS5003;34067;39.548;-76.088;2023-12-07T11:12:55;6;6;
31330;PMS5003;34067;39.548;-76.088;2023-12-07T11:15:27;6;4;
31330;PMS5003;34067;39.548;-76.088;2023-12-07T11:17:56;4;4;
31330;PMS5003;34067;39.548;-76.088;2023-12-07T11:20:31;7;6;
31330;PMS5003;34067;39.548;-76.088;2023-12-07T11:23:07;6;6;
31330;PMS5003;34067;39.548;-76.088;2023-12-07T11:25:35;7;4;
31330;PMS5003;34067;39.548;-76.088;2023-12-07T11:28:03;6;6;
31330;PMS5003;34067;39.548;-76.088;2023-12-07T11:30:32;7;6;
31330;PMS5003;34067;39.548;-76.088;2023-12-07T11:33:03;8;8;
31330;PMS5003;34067;39.548;-76.088;2023-12-07T11:35:31;6;4;
31330;PMS5003;34067;39.548;-76.088;2023-12-07T11:38:04;7;6;
31330;PMS5003;34067;39.548;-76.088;2023-12-07T11:40:36;8;7;
31330;PMS5003;34067;39.548;-76.088;2023-12-07T11:43:07;9;7;
31330;PMS5003;34067;39.548;-76.088;2023-12-07T11:45:39;7;7;
31330;PMS5003;34067;39.548;-76.088;2023-12-07T11:48:08;6;6;
31330;PMS5003;34067;39.548;-76.088;2023-12-07T11:50:46;7;7;
31330;PMS5003;34067;39.548;-76.088;2023-12-07T11:53:22;8;6;
31330;PMS5003;34067;39.548;-76.088;2023-12-07T11:55:51;7;7;
31330;PMS5003;34067;39.548;-76.088;2023-12-07T11:58:19;7;6;
31330;PMS5003;34067;39.548;-76.088;2023-12-07T12:00:47;6;6;
31330;PMS5003;34067;39.548;-76.088;2023-12-07T12:03:14;7;7;
31330;PMS5003;34067;39.548;-76.088;2023-12-07T12:05:42;6;6;
31330;PMS5003;34067;39.548;-76.088;2023-12-07T12:08:10;7;7;
31330;PMS5003;34067;39.548;-76.088;2023-12-07T12:10:39;8;7;
31330;PMS5003;34067;39.548;-76.088;2023-12-07T12:13:08;7;7;
31330;PMS5003;34067;39.548;-76.088;2023-12-07T12:15:37;4;4;
31330;PMS5003;34067;39.548;-76.088;2023-12-07T12:18:06;8;7;
31330;PMS5003;34067;39.548;-76.088;2023-12-07T12:20:34;8;6;
31330;PMS5003;34067;39.548;-76.088;2023-12-07T12:23:02;9;8;
31330;PMS5003;34067;39.548;-76.088;2023-12-07T12:25:30;6;6;
31330;PMS5003;34067;39.548;-76.088;2023-12-07T12:27:58;8;7;
31330;PMS5003;34067;39.548;-76.088;2023-12-07T12:30:29;7;7;
31330;PMS5003;34067;39.548;-76.088;2023-12-07T12:32:58;8;5;
31330;PMS5003;34067;39.548;-76.088;2023-12-07T12:35:26;10;10;
31330;PMS5003;34067;39.548;-76.088;2023-12-07T12:37:54;10;8;
31330;PMS5003;34067;39.548;-76.088;2023-12-07T12:40:23;9;8;
31330;PMS5003;34067;39.548;-76.088;2023-12-07T12:42:54;9;8;
31330;PMS5003;34067;39.548;-76.088;2023-12-07T12:45:22;8;8;
31330;PMS5003;34067;39.548;-76.088;2023-12-07T12:47:51;9;8;
31330;PMS5003;34067;39.548;-76.088;2023-12-07T12:50:36;10;8;
31330;PMS5003;34067;39.548;-76.088;2023-12-07T12:53:05;7;7;
31330;PMS5003;34067;39.548;-76.088;2023-12-07T12:55:35;9;8;
31330;PMS5003;34067;39.548;-76.088;2023-12-07T12:58:03;7;7;
31330;PMS5003;34067;39.548;-76.088;2023-12-07T13:00:33;10;9;
31330;PMS5003;34067;39.548;-76.088;2023-12-07T13:03:02;8;8;
31330;PMS5003;34067;39.548;-76.088;2023-12-07T13:05:31;10;8;
31330;PMS5003;34067;39.548;-76.088;2023-12-07T13:07:59;8;8;
31330;PMS5003;34067;39.548;-76.088;2023-12-07T13:10:28;9;8;
31330;PMS5003;34067;39.548;-76.088;2023-12-07T13:12:56;10;9;
31330;PMS5003;34067;39.548;-76.088;2023-12-07T13:15:24;7;7;
31330;PMS5003;34067;39.548;-76.088;2023-12-07T13:17:51;9;8;
31330;PMS5003;34067;39.548;-76.088;2023-12-07T13:20:19;8;7;
31330;PMS5003;34067;39.548;-76.088;2023-12-07T13:22:46;7;7;
31330;PMS5003;34067;39.548;-76.088;2023-12-07T13:25:14;9;8;
31330;PMS5003;34067;39.548;-76.088;2023-12-07T13:27:41;14;9;
31330;PMS5003;34067;39.548;-76.088;2023-12-07T13:30:09;10;10;
31330;PMS5003;34067;39.548;-76.088;2023-12-07T13:32:37;9;8;
31330;PMS5003;34067;39.548;-76.088;2023-12-07T13:35:06;10;9;
31330;PMS5003;34067;39.548;-76.088;2023-12-07T13:37:34;10;9;
31330;PMS5003;34067;39.548;-76.088;2023-12-07T13:40:02;8;8;
31330;PMS5003;34067;39.548;-76.088;2023-12-07T13:42:31;9;9;
31330;PMS5003;34067;39.548;-76.088;2023-12-07T13:44:59;9;8;
31330;PMS5003;34067;39.548;-76.088;2023-12-07T13:47:28;10;9;
31330;PMS5003;34067;39.548;-76.088;2023-12-07T13:49:56;12;9;
31330;PMS5003;34067;39.548;-76.088;2023-12-07T13:52:24;11;11;
31330;PMS5003;34067;39.548;-76.088;2023-12-07T13:54:54;13;11;
31330;PMS5003;34067;39.548;-76.088;2023-12-07T13:57:22;10;9;
31330;PMS5003;34067;39.548;-76.088;2023-12-07T13:59:50;11;10;
31330;PMS5003;34067;39.548;-76.088;2023-12-07T14:02:19;13;11;
31330;PMS5003;34067;39.548;-76.088;2023-12-07T14:04:47;10;10;
31330;PMS5003;34067;39.548;-76.088;2023-12-07T14:07:16;10;10;
31330;PMS5003;34067;39.548;-76.088;2023-12-07T14:09:45;10;9;
31330;PMS5003;34067;39.548;-76.088;2023-12-07T14:12:14;11;10;
31330;PMS5003;34067;39.548;-76.088;2023-12-07T14:14:42;9;9;
31330;PMS5003;34067;39.548;-76.088;2023-12-07T14:17:12;11;11;
31330;PMS5003;34067;39.548;-76.088;2023-12-07T14:19:41;15;10;
31330;PMS5003;34067;39.548;-76.088;2023-12-07T14:22:09;12;11;
31330;PMS5003;34067;39.548;-76.088;2023-12-07T14:24:37;12;11;
31330;PMS5003;34067;39.548;-76.088;2023-12-07T14:27:06;14;11;
31330;PMS5003;34067;39.548;-76.088;2023-12-07T14:29:34;18;12;
31330;PMS5003;34067;39.548;-76.088;2023-12-07T14:32:02;15;12;
31330;PMS5003;34067;39.548;-76.088;2023-12-07T14:34:30;10;10;
31330;PMS5003;34067;39.548;-76.088;2023-12-07T14:36:58;15;14;
31330;PMS5003;34067;39.548;-76.088;2023-12-07T14:39:27;15;14;
31330;PMS5003;34067;39.548;-76.088;2023-12-07T14:41:54;12;12;
31330;PMS5003;34067;39.548;-76.088;2023-12-07T14:44:22;15;14;
31330;PMS5003;34067;39.548;-76.088;2023-12-07T14:46:50;12;12;
31330;PMS5003;34067;39.548;-76.088;2023-12-07T14:49:18;15;12;
31330;PMS5003;34067;39.548;-76.088;2023-12-07T14:51:46;16;15;
31330;PMS5003;34067;39.548;-76.088;2023-12-07T14:54:14;10;9;
31330;PMS5003;34067;39.548;-76.088;2023-12-07T14:56:42;12;11;
31330;PMS5003;34067;39.548;-76.088;2023-12-07T14:59:11;15;14;
31330;PMS5003;34067;39.548;-76.088;2023-12-07T15:01:39;15;14;
31330;PMS5003;34067;39.548;-76.088;2023-12-07T15:04:07;12;11;
31330;PMS5003;34067;39.548;-76.088;2023-12-07T15:06:35;19;15;
31330;PMS5003;34067;39.548;-76.088;2023-12-07T15:09:03;17;15;
31330;PMS5003;34067;39.548;-76.088;2023-12-07T15:11:31;11;11;
31330;PMS5003;34067;39.548;-76.088;2023-12-07T15:13:59;11;10;
31330;PMS5003;34067;39.548;-76.088;2023-12-07T15:16:28;15;12;
31330;PMS5003;34067;39.548;-76.088;2023-12-07T15:18:56;16;11;
31330;PMS5003;34067;39.548;-76.088;2023-12-07T15:21:23;15;14;
31330;PMS5003;34067;39.548;-76.088;2023-12-07T15:23:51;15;12;
31330;PMS5003;34067;39.548;-76.088;2023-12-07T15:26:18;16;15;
31330;PMS5003;34067;39.548;-76.088;2023-12-07T15:28:46;17;14;
31330;PMS5003;34067;39.548;-76.088;2023-12-07T15:31:13;17;15;
31330;PMS5003;34067;39.548;-76.088;2023-12-07T15:33:41;14;12;
31330;PMS5003;34067;39.548;-76.088;2023-12-07T15:36:09;18;15;
31330;PMS5003;34067;39.548;-76.088;2023-12-07T15:38:36;19;17;
31330;PMS5003;34067;39.548;-76.088;2023-12-07T15:41:04;16;12;
31330;PMS5003;34067;39.548;-76.088;2023-12-07T15:43:32;16;14;
31330;PMS5003;34067;39.548;-76.088;2023-12-07T15:45:59;12;11;
31330;PMS5003;34067;39.548;-76.088;2023-12-07T15:48:28;13;12;
31330;PMS5003;34067;39.548;-76.088;2023-12-07T15:50:55;22;20;
31330;PMS5003;34067;39.548;-76.088;2023-12-07T15:53:24;17;17;
31330;PMS5003;34067;39.548;-76.088;2023-12-07T15:55:51;16;12;
31330;PMS5003;34067;39.548;-76.088;2023-12-07T15:58:19;30;26;
31330;PMS5003;34067;39.548;-76.088;2023-12-07T16:00:47;36;33;
31330;PMS5003;34067;39.548;-76.088;2023-12-07T16:03:15;26;23;
31330;PMS5003;34067;39.548;-76.088;2023-12-07T16:05:43;28;25;
31330;PMS5003;34067;39.548;-76.088;2023-12-07T16:08:11;26;25;
31330;PMS5003;34067;39.548;-76.088;2023-12-07T16:10:39;21;20;
31330;PMS5003;34067;39.548;-76.088;2023-12-07T16:13:06;14;12;
31330;PMS5003;34067;39.548;-76.088;2023-12-07T16:15:34;16;13;
31330;PMS5003;34067;39.548;-76.088;2023-12-07T16:18:02;12;12;
31330;PMS5003;34067;39.548;-76.088;2023-12-07T16:20:30;19;17;
31330;PMS5003;34067;39.548;-76.088;2023-12-07T16:22:58;12;12;